Volcan De Tamadaba — EAOG — position and weather

sailwx.info

Track history (hours):
 
Tides and Currents Weather Stations Pressure Air Temp Water Temp Dewpoint Dewpoint Depression Visibility Wind Speed Wind Dir Waves Ship Positions

Volcan De Tamadaba

Last reported at 2017-Dec-11 17:00 UTC. Time now 2017-Dec-12 14:03 UTC.
Position N 28°10' W 015°24'.

Length 155 m; draft 5 m.

Type: Passenger vessel. MMSI: 224957000.

Date/timePositionNaut miles runAvg speedWind from/ knotsBaromVisibWave heightAir tempDewpointWater temp
2017-Dec-11 17:00N 28°10' W 015°24'1 1.4
2017-Dec-11 16:30N 28°10' W 015°23'1020.9
2017-Dec-11 16:00N 28°15' W 015°33'1122.1
2017-Dec-11 15:30N 28°18' W 015°45'1121.4
2017-Dec-11 15:00N 28°22' W 015°57'1121.3
2017-Dec-11 14:30N 28°26' W 016°08'612.3
2017-Dec-11 14:00N 28°28' W 016°15'0 0.0
2017-Dec-11 13:30N 28°28' W 016°15'0 0.0
2017-Dec-11 13:00N 28°28' W 016°15'0 0.0
2017-Dec-11 12:30N 28°28' W 016°15'0 0.0
2017-Dec-11 12:00N 28°28' W 016°15'0 0.0
2017-Dec-11 11:30N 28°28' W 016°15'0 0.0
2017-Dec-11 11:00N 28°28' W 016°15'0 0.0
2017-Dec-11 10:30N 28°28' W 016°15'2 3.8
2017-Dec-11 10:01N 28°29' W 016°12'1121.2
2017-Dec-11 09:31N 28°25' W 016°01'1121.6
2017-Dec-11 09:00N 28°20' W 015°50'1121.2
2017-Dec-11 08:31N 28°17' W 015°39'1120.9
2017-Dec-11 08:00N 28°13' W 015°28'5 9.3
2017-Dec-11 07:30N 28°10' W 015°24'0 0.0
2017-Dec-11 07:00N 28°10' W 015°24'0 0.0
2017-Dec-11 06:30N 28°10' W 015°24'0 0.0
2017-Dec-11 06:00N 28°10' W 015°24'0 0.0
2017-Dec-11 05:30N 28°10' W 015°24'0 0.0
2017-Dec-11 05:00N 28°10' W 015°24'0 0.0
2017-Dec-11 04:30N 28°10' W 015°24'0 0.0
2017-Dec-11 04:00N 28°10' W 015°24'0 0.0
2017-Dec-11 03:30N 28°10' W 015°24'0 0.0
2017-Dec-11 03:00N 28°10' W 015°24'0 0.0
2017-Dec-11 02:30N 28°10' W 015°24'0 0.0
2017-Dec-11 02:00N 28°10' W 015°24'0 0.0
2017-Dec-11 01:30N 28°10' W 015°24'0 0.0
2017-Dec-11 01:00N 28°10' W 015°24'0 0.0
2017-Dec-11 00:30N 28°10' W 015°24'0 0.0
2017-Dec-11 00:00N 28°10' W 015°24'0 0.0
2017-Dec-10 23:30N 28°10' W 015°24'0 0.0
2017-Dec-10 23:00N 28°10' W 015°24'1 2.1
2017-Dec-10 22:30N 28°10' W 015°23'1019.3
2017-Dec-10 22:00N 28°15' W 015°32'1122.0
2017-Dec-10 21:30N 28°19' W 015°44'1121.3
2017-Dec-10 21:00N 28°22' W 015°55'1121.5
2017-Dec-10 20:30N 28°26' W 016°07'714.9
2017-Dec-10 20:00N 28°28' W 016°15'0 0.0
2017-Dec-10 19:30N 28°28' W 016°15'0 0.0
2017-Dec-10 19:00N 28°28' W 016°15'0 0.0
2017-Dec-10 18:30N 28°28' W 016°15'1 2.0
2017-Dec-10 18:00N 28°29' W 016°14'1121.3
2017-Dec-10 17:30N 28°25' W 016°02'1122.1
2017-Dec-10 17:00N 28°21' W 015°51'1121.7
2017-Dec-10 16:30N 28°17' W 015°39'1121.3
2017-Dec-10 16:00N 28°13' W 015°28'510.2
2017-Dec-10 15:30N 28°10' W 015°24'0 0.0
2017-Dec-10 15:00N 28°10' W 015°24'0 0.0
2017-Dec-10 14:30N 28°10' W 015°24'0 0.0
2017-Dec-10 14:01N 28°10' W 015°24'0 0.0
2017-Dec-10 13:31N 28°10' W 015°24'0 0.0
2017-Dec-10 13:01N 28°10' W 015°24'0 0.0
2017-Dec-10 12:31N 28°10' W 015°24'0 0.0
2017-Dec-10 12:00N 28°10' W 015°24'0 0.0
2017-Dec-10 11:30N 28°10' W 015°24'0 0.0
2017-Dec-10 11:01N 28°10' W 015°24'0 0.0
2017-Dec-10 10:30N 28°10' W 015°24'0 0.0
2017-Dec-10 10:01N 28°10' W 015°24'0 0.0
2017-Dec-10 09:31N 28°10' W 015°24'0 0.0
2017-Dec-10 09:01N 28°10' W 015°24'0 0.0
2017-Dec-10 08:30N 28°10' W 015°24'0 0.0
2017-Dec-10 08:00N 28°10' W 015°24'0 0.0
2017-Dec-10 07:31N 28°10' W 015°24'0 0.0
2017-Dec-10 07:00N 28°10' W 015°24'0 0.0
2017-Dec-10 06:30N 28°10' W 015°24'0 0.0
2017-Dec-10 06:00N 28°10' W 015°24'0 0.0
2017-Dec-10 05:30N 28°10' W 015°24'0 0.0
2017-Dec-10 05:00N 28°10' W 015°24'0 0.0
2017-Dec-10 04:30N 28°10' W 015°24'0 0.0
2017-Dec-10 04:00N 28°10' W 015°24'0 0.0
2017-Dec-10 03:30N 28°10' W 015°24'0 0.0
2017-Dec-10 03:00N 28°10' W 015°24'0 0.0
2017-Dec-10 02:30N 28°10' W 015°24'0 0.0
2017-Dec-10 02:00N 28°10' W 015°24'0 0.0
2017-Dec-10 01:30N 28°10' W 015°24'0 0.0
2017-Dec-10 01:00N 28°10' W 015°24'0 0.0
2017-Dec-10 00:30N 28°10' W 015°24'0 0.0
2017-Dec-10 00:00N 28°10' W 015°24'0 0.0
2017-Dec-09 23:31N 28°10' W 015°24'0 0.0
2017-Dec-09 23:01N 28°10' W 015°24'0 0.9
2017-Dec-09 22:31N 28°09' W 015°24'815.5
2017-Dec-09 22:00N 28°14' W 015°31'1122.3
2017-Dec-09 21:30N 28°17' W 015°43'1221.9
2017-Dec-09 20:56N 28°22' W 015°56'921.7
2017-Dec-09 20:30N 28°26' W 016°06'816.1
2017-Dec-09 20:01N 28°28' W 016°15'0 0.1
2017-Dec-09 19:31N 28°28' W 016°15'0 0.0
2017-Dec-09 19:00N 28°28' W 016°15'0 0.0
2017-Dec-09 18:31N 28°28' W 016°15'0 0.0
2017-Dec-09 18:01N 28°28' W 016°15'0 0.0
2017-Dec-09 17:30N 28°28' W 016°15'0 0.0
2017-Dec-09 17:01N 28°28' W 016°15'0 0.0
2017-Dec-09 16:31N 28°28' W 016°15'0 0.0
2017-Dec-09 16:00N 28°28' W 016°15'0 0.0
2017-Dec-09 15:31N 28°28' W 016°15'0 0.0
2017-Dec-09 15:00N 28°28' W 016°15'0 0.0
2017-Dec-09 14:31N 28°28' W 016°15'0 0.0
2017-Dec-09 14:01N 28°28' W 016°15'0 0.0
2017-Dec-09 13:31N 28°28' W 016°15'0 0.0
2017-Dec-09 13:01N 28°28' W 016°15'0 0.0
2017-Dec-09 12:31N 28°28' W 016°15'0 0.0
2017-Dec-09 12:00N 28°28' W 016°15'0 0.0
2017-Dec-09 11:30N 28°28' W 016°15'0 0.0
2017-Dec-09 11:01N 28°28' W 016°15'1 1.0
2017-Dec-09 10:31N 28°29' W 016°14'918.5
2017-Dec-09 10:01N 28°26' W 016°04'1322.0
2017-Dec-09 09:24N 28°21' W 015°50'922.1
2017-Dec-09 09:01N 28°18' W 015°41'1121.6
2017-Dec-09 08:31N 28°14' W 015°30'713.0
2017-Dec-09 08:00N 28°09' W 015°24'0 0.4
2017-Dec-09 07:30N 28°10' W 015°24'0 0.0
2017-Dec-09 07:00N 28°10' W 015°24'0 0.0
2017-Dec-09 06:30N 28°10' W 015°24'0 0.0
2017-Dec-09 06:00N 28°10' W 015°24'0 0.0
2017-Dec-09 05:30N 28°10' W 015°24'0 0.0
2017-Dec-09 05:00N 28°10' W 015°24'0 0.0
2017-Dec-09 04:30N 28°10' W 015°24'0 0.0
2017-Dec-09 04:00N 28°10' W 015°24'0 0.0
2017-Dec-09 03:30N 28°10' W 015°24'0 0.0
2017-Dec-09 03:00N 28°10' W 015°24'0 0.0
2017-Dec-09 02:30N 28°10' W 015°24'0 0.1
2017-Dec-09 02:00N 28°10' W 015°24'0 0.1
2017-Dec-09 01:30N 28°10' W 015°24'0 0.0
2017-Dec-09 01:00N 28°10' W 015°24'0 0.0
2017-Dec-09 00:30N 28°10' W 015°24'0 0.0
2017-Dec-09 00:00N 28°10' W 015°24'0 0.0
2017-Dec-08 23:30N 28°10' W 015°24'0 0.0
2017-Dec-08 23:00N 28°10' W 015°24'4 8.7
2017-Dec-08 22:30N 28°13' W 015°27'1121.9
2017-Dec-08 22:00N 28°17' W 015°39'1321.6
2017-Dec-08 21:23N 28°22' W 015°53'821.1
2017-Dec-08 21:00N 28°25' W 016°02'1021.2
2017-Dec-08 20:30N 28°28' W 016°13'2 3.7
2017-Dec-08 20:00N 28°28' W 016°15'0 0.0
2017-Dec-08 19:30N 28°28' W 016°15'1 2.7
2017-Dec-08 19:00N 28°29' W 016°13'815.9
2017-Dec-08 18:31N 28°26' W 016°05'1322.4
2017-Dec-08 17:56N 28°21' W 015°51'1022.4
2017-Dec-08 17:30N 28°17' W 015°41'1122.4
2017-Dec-08 17:00N 28°14' W 015°29'612.5
2017-Dec-08 16:30N 28°09' W 015°24'0 0.6
2017-Dec-08 16:00N 28°10' W 015°24'0 0.0
2017-Dec-08 15:30N 28°10' W 015°24'0 0.0
2017-Dec-08 15:00N 28°10' W 015°24'0 0.0
2017-Dec-08 14:30N 28°10' W 015°24'1 2.6
2017-Dec-08 14:00N 28°10' W 015°23'1122.5
2017-Dec-08 13:30N 28°15' W 015°11'1122.7
2017-Dec-08 13:00N 28°20' W 014°60'1222.8
2017-Dec-08 12:30N 28°25' W 014°48'5522.4
2017-Dec-08 10:02N 28°49' W 013°51'321.4
2017-Dec-08 09:53N 28°49' W 013°47'822.6
2017-Dec-08 09:30N 28°53' W 013°39'816.6
2017-Dec-08 09:00N 28°58' W 013°32'0 0.0
2017-Dec-08 08:26N 28°58' W 013°32'0 0.0
2017-Dec-08 08:00N 28°58' W 013°32'0 0.0
2017-Dec-08 07:29N 28°58' W 013°32'0 0.0
2017-Dec-08 06:59N 28°58' W 013°32'0 0.0
2017-Dec-08 06:28N 28°58' W 013°32'3 5.7
2017-Dec-08 06:00N 28°56' W 013°33'1318.9
2017-Dec-08 05:18N 28°50' W 013°46'4918.7
2017-Dec-08 02:41N 28°32' W 014°38'418.7
2017-Dec-08 02:30N 28°30' W 014°42'918.5
2017-Dec-08 01:59N 28°25' W 014°51'918.4
2017-Dec-08 01:30N 28°21' W 014°60'918.4
2017-Dec-08 01:00N 28°16' W 015°09'918.2
2017-Dec-08 00:30N 28°12' W 015°18'612.0
2017-Dec-08 00:00N 28°10' W 015°24'0 0.0
2017-Dec-07 23:30N 28°10' W 015°24'0 0.0
2017-Dec-07 23:00N 28°10' W 015°24'0 0.0
2017-Dec-07 22:30N 28°10' W 015°24'0 0.0
2017-Dec-07 22:00N 28°10' W 015°24'0 0.0
2017-Dec-07 21:30N 28°10' W 015°24'0 0.0
2017-Dec-07 21:00N 28°10' W 015°24'0 0.0
2017-Dec-07 20:30N 28°10' W 015°24'0 0.0
2017-Dec-07 20:00N 28°10' W 015°24'0 0.0
2017-Dec-07 19:30N 28°10' W 015°24'0 0.0
2017-Dec-07 19:00N 28°10' W 015°24'2 3.1
2017-Dec-07 18:30N 28°09' W 015°22'1121.4
2017-Dec-07 18:01N 28°07' W 015°11'1121.6
2017-Dec-07 17:31N 28°06' W 014°58'1121.6
2017-Dec-07 17:00N 28°04' W 014°46'1121.9
2017-Dec-07 16:30N 28°02' W 014°34'0 0.0
2017-Dec-07 10:14N 28°02' W 014°34'520.7
2017-Dec-07 10:00N 28°03' W 014°39'1020.6
2017-Dec-07 09:30N 28°04' W 014°51'1020.9
2017-Dec-07 09:00N 28°06' W 015°02'1121.0
2017-Dec-07 08:30N 28°08' W 015°14'917.8
2017-Dec-07 08:00N 28°09' W 015°24'0 0.3
2017-Dec-07 07:30N 28°10' W 015°24'0 0.0
2017-Dec-07 07:00N 28°10' W 015°24'0 0.0
2017-Dec-07 06:30N 28°10' W 015°24'0 0.0
2017-Dec-07 06:00N 28°10' W 015°24'0 0.0
2017-Dec-07 05:30N 28°10' W 015°24'0 0.0
2017-Dec-07 05:00N 28°10' W 015°24'0 0.0
2017-Dec-07 04:30N 28°10' W 015°24'0 0.0
2017-Dec-07 04:00N 28°10' W 015°24'0 0.0
2017-Dec-07 03:30N 28°10' W 015°24'0 0.0
2017-Dec-07 03:00N 28°10' W 015°24'0 0.0
2017-Dec-07 02:30N 28°10' W 015°24'0 0.0
2017-Dec-07 02:00N 28°10' W 015°24'0 0.0
2017-Dec-07 01:30N 28°10' W 015°24'0 0.0
2017-Dec-07 01:00N 28°10' W 015°24'0 0.0
2017-Dec-07 00:30N 28°10' W 015°24'0 0.0
2017-Dec-07 00:00N 28°10' W 015°24'0 0.0
2017-Dec-06 23:30N 28°10' W 015°24'0 0.0
2017-Dec-06 23:00N 28°10' W 015°24'0 0.2
2017-Dec-06 22:30N 28°10' W 015°24'611.4
2017-Dec-06 22:00N 28°13' W 015°29'1121.7
2017-Dec-06 21:30N 28°17' W 015°40'1121.4
2017-Dec-06 21:00N 28°21' W 015°52'  
2017-Dec-04 10:30N 28°10' W 015°24'1 1.5
2017-Dec-04 10:00N 28°10' W 015°23'1019.8
2017-Dec-04 09:30N 28°15' W 015°33'1020.9
2017-Dec-04 09:00N 28°18' W 015°44'1020.8
2017-Dec-04 08:30N 28°22' W 015°55'18 7.5
2017-Dec-04 06:04N 28°28' W 016°15'20 2.2
2017-Dec-03 21:05N 28°22' W 015°54'621.5
2017-Dec-03 20:49N 28°19' W 015°48'721.8
2017-Dec-03 20:30N 28°17' W 015°40'1121.5
2017-Dec-03 20:00N 28°13' W 015°29'611.3
2017-Dec-03 19:30N 28°09' W 015°24'0 0.4
2017-Dec-03 19:00N 28°10' W 015°24'0 0.0
2017-Dec-03 18:30N 28°10' W 015°24'1 1.5
2017-Dec-03 18:00N 28°10' W 015°23'1020.1
2017-Dec-03 17:30N 28°15' W 015°33'1121.4
2017-Dec-03 17:00N 28°18' W 015°45'1121.1
2017-Dec-03 16:30N 28°23' W 015°56'1 0.1
2017-Dec-03 09:39N 28°23' W 015°55'522.0
2017-Dec-03 09:25N 28°21' W 015°50'921.8
2017-Dec-03 09:00N 28°17' W 015°41'1121.5
2017-Dec-03 08:30N 28°14' W 015°29'612.2
2017-Dec-03 08:00N 28°09' W 015°24'0 0.4
2017-Dec-03 07:30N 28°10' W 015°24'0 0.0
2017-Dec-03 07:00N 28°10' W 015°24'0 0.0
2017-Dec-03 06:30N 28°10' W 015°24'0 0.0
2017-Dec-03 06:00N 28°10' W 015°24'0 0.0
2017-Dec-03 05:30N 28°10' W 015°24'0 0.0
2017-Dec-03 05:00N 28°10' W 015°24'0 0.0
2017-Dec-03 04:30N 28°10' W 015°24'0 0.0
2017-Dec-03 04:00N 28°10' W 015°24'0 0.0
2017-Dec-03 03:30N 28°10' W 015°24'0 0.0
2017-Dec-03 03:00N 28°10' W 015°24'0 0.0
2017-Dec-03 02:30N 28°10' W 015°24'0 0.0
2017-Dec-03 02:00N 28°10' W 015°24'0 0.0
2017-Dec-03 01:30N 28°10' W 015°24'0 0.0
2017-Dec-03 01:00N 28°10' W 015°24'0 0.0
2017-Dec-03 00:30N 28°10' W 015°24'0 0.0
2017-Dec-03 00:00N 28°10' W 015°24'0 0.0
2017-Dec-02 23:30N 28°10' W 015°24'0 0.0
2017-Dec-02 23:00N 28°10' W 015°24'0 0.0
2017-Dec-02 22:30N 28°10' W 015°24'0 0.0
2017-Dec-02 22:00N 28°10' W 015°24'0 0.0
2017-Dec-02 21:30N 28°10' W 015°24'0 0.0
2017-Dec-02 21:00N 28°10' W 015°24'0 0.0
2017-Dec-02 20:30N 28°10' W 015°24'0 0.0
2017-Dec-02 20:00N 28°10' W 015°24'0 0.0
2017-Dec-02 19:30N 28°10' W 015°24'0 0.0
2017-Dec-02 19:00N 28°10' W 015°24'0 0.0
2017-Dec-02 18:30N 28°10' W 015°24'0 0.0
2017-Dec-02 18:00N 28°10' W 015°24'0 0.0
2017-Dec-02 17:30N 28°10' W 015°24'0 0.0
2017-Dec-02 17:00N 28°10' W 015°24'0 0.0
2017-Dec-02 16:30N 28°10' W 015°24'611.8
2017-Dec-02 16:00N 28°12' W 015°18'1122.0
2017-Dec-02 15:30N 28°16' W 015°07'1121.6
2017-Dec-02 15:00N 28°21' W 014°56'1121.7
2017-Dec-02 14:30N 28°26' W 014°44'1 0.1
2017-Dec-02 02:29N 28°27' W 014°44'919.5
2017-Dec-02 02:01N 28°22' W 014°53'1019.5
2017-Dec-02 01:30N 28°18' W 015°03'1019.2
2017-Dec-02 01:00N 28°15' W 015°13'1019.5
2017-Dec-02 00:30N 28°10' W 015°23'1 2.2
2017-Dec-02 00:00N 28°10' W 015°24'0 0.0
2017-Dec-01 23:30N 28°10' W 015°24'0 0.0
2017-Dec-01 23:00N 28°10' W 015°24'0 0.0
2017-Dec-01 22:30N 28°10' W 015°24'0 0.0
2017-Dec-01 22:00N 28°10' W 015°24'0 0.0
2017-Dec-01 21:30N 28°10' W 015°24'0 0.0
2017-Dec-01 21:00N 28°10' W 015°24'0 0.0
2017-Dec-01 20:30N 28°10' W 015°24'0 0.0
2017-Dec-01 20:00N 28°10' W 015°24'0 0.0
2017-Dec-01 19:30N 28°10' W 015°24'1 2.7
2017-Dec-01 19:00N 28°11' W 015°23'1121.1
2017-Dec-01 18:31N 28°15' W 015°34'1121.3
2017-Dec-01 18:01N 28°19' W 015°46'1121.2
2017-Dec-01 17:31N 28°23' W 015°57'  
Track history (hours):
 
Tides and Currents Weather Stations Pressure Air Temp Water Temp Dewpoint Dewpoint Depression Visibility Wind Speed Wind Dir Waves Ship Positions

Volcan De Tamadaba

Last reported at 2017-Dec-11 17:00 UTC. Time now 2017-Dec-12 14:03 UTC.
Position N 28°10' W 015°24'.

Length 155 m; draft 5 m.

Type: Passenger vessel. MMSI: 224957000.

Date/timePositionNaut miles runAvg speedWind from/ knotsBaromVisibWave heightAir tempDewpointWater temp
2017-Dec-11 17:00N 28°10' W 015°24'1 1.4
2017-Dec-11 16:30N 28°10' W 015°23'1020.9
2017-Dec-11 16:00N 28°15' W 015°33'1122.1
2017-Dec-11 15:30N 28°18' W 015°45'1121.4
2017-Dec-11 15:00N 28°22' W 015°57'1121.3
2017-Dec-11 14:30N 28°26' W 016°08'612.3
2017-Dec-11 14:00N 28°28' W 016°15'0 0.0
2017-Dec-11 13:30N 28°28' W 016°15'0 0.0
2017-Dec-11 13:00N 28°28' W 016°15'0 0.0
2017-Dec-11 12:30N 28°28' W 016°15'0 0.0
2017-Dec-11 12:00N 28°28' W 016°15'0 0.0
2017-Dec-11 11:30N 28°28' W 016°15'0 0.0
2017-Dec-11 11:00N 28°28' W 016°15'0 0.0
2017-Dec-11 10:30N 28°28' W 016°15'2 3.8
2017-Dec-11 10:01N 28°29' W 016°12'1121.2
2017-Dec-11 09:31N 28°25' W 016°01'1121.6
2017-Dec-11 09:00N 28°20' W 015°50'1121.2
2017-Dec-11 08:31N 28°17' W 015°39'1120.9
2017-Dec-11 08:00N 28°13' W 015°28'5 9.3
2017-Dec-11 07:30N 28°10' W 015°24'0 0.0
2017-Dec-11 07:00N 28°10' W 015°24'0 0.0
2017-Dec-11 06:30N 28°10' W 015°24'0 0.0
2017-Dec-11 06:00N 28°10' W 015°24'0 0.0
2017-Dec-11 05:30N 28°10' W 015°24'0 0.0
2017-Dec-11 05:00N 28°10' W 015°24'0 0.0
2017-Dec-11 04:30N 28°10' W 015°24'0 0.0
2017-Dec-11 04:00N 28°10' W 015°24'0 0.0
2017-Dec-11 03:30N 28°10' W 015°24'0 0.0
2017-Dec-11 03:00N 28°10' W 015°24'0 0.0
2017-Dec-11 02:30N 28°10' W 015°24'0 0.0
2017-Dec-11 02:00N 28°10' W 015°24'0 0.0
2017-Dec-11 01:30N 28°10' W 015°24'0 0.0
2017-Dec-11 01:00N 28°10' W 015°24'0 0.0
2017-Dec-11 00:30N 28°10' W 015°24'0 0.0
2017-Dec-11 00:00N 28°10' W 015°24'0 0.0
2017-Dec-10 23:30N 28°10' W 015°24'0 0.0
2017-Dec-10 23:00N 28°10' W 015°24'1 2.1
2017-Dec-10 22:30N 28°10' W 015°23'1019.3
2017-Dec-10 22:00N 28°15' W 015°32'1122.0
2017-Dec-10 21:30N 28°19' W 015°44'1121.3
2017-Dec-10 21:00N 28°22' W 015°55'1121.5
2017-Dec-10 20:30N 28°26' W 016°07'714.9
2017-Dec-10 20:00N 28°28' W 016°15'0 0.0
2017-Dec-10 19:30N 28°28' W 016°15'0 0.0
2017-Dec-10 19:00N 28°28' W 016°15'0 0.0
2017-Dec-10 18:30N 28°28' W 016°15'1 2.0
2017-Dec-10 18:00N 28°29' W 016°14'1121.3
2017-Dec-10 17:30N 28°25' W 016°02'1122.1
2017-Dec-10 17:00N 28°21' W 015°51'1121.7
2017-Dec-10 16:30N 28°17' W 015°39'1121.3
2017-Dec-10 16:00N 28°13' W 015°28'510.2
2017-Dec-10 15:30N 28°10' W 015°24'0 0.0
2017-Dec-10 15:00N 28°10' W 015°24'0 0.0
2017-Dec-10 14:30N 28°10' W 015°24'0 0.0
2017-Dec-10 14:01N 28°10' W 015°24'0 0.0
2017-Dec-10 13:31N 28°10' W 015°24'0 0.0
2017-Dec-10 13:01N 28°10' W 015°24'0 0.0
2017-Dec-10 12:31N 28°10' W 015°24'0 0.0
2017-Dec-10 12:00N 28°10' W 015°24'0 0.0
2017-Dec-10 11:30N 28°10' W 015°24'0 0.0
2017-Dec-10 11:01N 28°10' W 015°24'0 0.0
2017-Dec-10 10:30N 28°10' W 015°24'0 0.0
2017-Dec-10 10:01N 28°10' W 015°24'0 0.0
2017-Dec-10 09:31N 28°10' W 015°24'0 0.0
2017-Dec-10 09:01N 28°10' W 015°24'0 0.0
2017-Dec-10 08:30N 28°10' W 015°24'0 0.0
2017-Dec-10 08:00N 28°10' W 015°24'0 0.0
2017-Dec-10 07:31N 28°10' W 015°24'0 0.0
2017-Dec-10 07:00N 28°10' W 015°24'0 0.0
2017-Dec-10 06:30N 28°10' W 015°24'0 0.0
2017-Dec-10 06:00N 28°10' W 015°24'0 0.0
2017-Dec-10 05:30N 28°10' W 015°24'0 0.0
2017-Dec-10 05:00N 28°10' W 015°24'0 0.0
2017-Dec-10 04:30N 28°10' W 015°24'0 0.0
2017-Dec-10 04:00N 28°10' W 015°24'0 0.0
2017-Dec-10 03:30N 28°10' W 015°24'0 0.0
2017-Dec-10 03:00N 28°10' W 015°24'0 0.0
2017-Dec-10 02:30N 28°10' W 015°24'0 0.0
2017-Dec-10 02:00N 28°10' W 015°24'0 0.0
2017-Dec-10 01:30N 28°10' W 015°24'0 0.0
2017-Dec-10 01:00N 28°10' W 015°24'0 0.0
2017-Dec-10 00:30N 28°10' W 015°24'0 0.0
2017-Dec-10 00:00N 28°10' W 015°24'0 0.0
2017-Dec-09 23:31N 28°10' W 015°24'0 0.0
2017-Dec-09 23:01N 28°10' W 015°24'0 0.9
2017-Dec-09 22:31N 28°09' W 015°24'815.5
2017-Dec-09 22:00N 28°14' W 015°31'1122.3
2017-Dec-09 21:30N 28°17' W 015°43'1221.9
2017-Dec-09 20:56N 28°22' W 015°56'921.7
2017-Dec-09 20:30N 28°26' W 016°06'816.1
2017-Dec-09 20:01N 28°28' W 016°15'0 0.1
2017-Dec-09 19:31N 28°28' W 016°15'0 0.0
2017-Dec-09 19:00N 28°28' W 016°15'0 0.0
2017-Dec-09 18:31N 28°28' W 016°15'0 0.0
2017-Dec-09 18:01N 28°28' W 016°15'0 0.0
2017-Dec-09 17:30N 28°28' W 016°15'0 0.0
2017-Dec-09 17:01N 28°28' W 016°15'0 0.0
2017-Dec-09 16:31N 28°28' W 016°15'0 0.0
2017-Dec-09 16:00N 28°28' W 016°15'0 0.0
2017-Dec-09 15:31N 28°28' W 016°15'0 0.0
2017-Dec-09 15:00N 28°28' W 016°15'0 0.0
2017-Dec-09 14:31N 28°28' W 016°15'0 0.0
2017-Dec-09 14:01N 28°28' W 016°15'0 0.0
2017-Dec-09 13:31N 28°28' W 016°15'0 0.0
2017-Dec-09 13:01N 28°28' W 016°15'0 0.0
2017-Dec-09 12:31N 28°28' W 016°15'0 0.0
2017-Dec-09 12:00N 28°28' W 016°15'0 0.0
2017-Dec-09 11:30N 28°28' W 016°15'0 0.0
2017-Dec-09 11:01N 28°28' W 016°15'1 1.0
2017-Dec-09 10:31N 28°29' W 016°14'918.5
2017-Dec-09 10:01N 28°26' W 016°04'1322.0
2017-Dec-09 09:24N 28°21' W 015°50'922.1
2017-Dec-09 09:01N 28°18' W 015°41'1121.6
2017-Dec-09 08:31N 28°14' W 015°30'713.0
2017-Dec-09 08:00N 28°09' W 015°24'0 0.4
2017-Dec-09 07:30N 28°10' W 015°24'0 0.0
2017-Dec-09 07:00N 28°10' W 015°24'0 0.0
2017-Dec-09 06:30N 28°10' W 015°24'0 0.0
2017-Dec-09 06:00N 28°10' W 015°24'0 0.0
2017-Dec-09 05:30N 28°10' W 015°24'0 0.0
2017-Dec-09 05:00N 28°10' W 015°24'0 0.0
2017-Dec-09 04:30N 28°10' W 015°24'0 0.0
2017-Dec-09 04:00N 28°10' W 015°24'0 0.0
2017-Dec-09 03:30N 28°10' W 015°24'0 0.0
2017-Dec-09 03:00N 28°10' W 015°24'0 0.0
2017-Dec-09 02:30N 28°10' W 015°24'0 0.1
2017-Dec-09 02:00N 28°10' W 015°24'0 0.1
2017-Dec-09 01:30N 28°10' W 015°24'0 0.0
2017-Dec-09 01:00N 28°10' W 015°24'0 0.0
2017-Dec-09 00:30N 28°10' W 015°24'0 0.0
2017-Dec-09 00:00N 28°10' W 015°24'0 0.0
2017-Dec-08 23:30N 28°10' W 015°24'0 0.0
2017-Dec-08 23:00N 28°10' W 015°24'4 8.7
2017-Dec-08 22:30N 28°13' W 015°27'1121.9
2017-Dec-08 22:00N 28°17' W 015°39'1321.6
2017-Dec-08 21:23N 28°22' W 015°53'821.1
2017-Dec-08 21:00N 28°25' W 016°02'1021.2
2017-Dec-08 20:30N 28°28' W 016°13'2 3.7
2017-Dec-08 20:00N 28°28' W 016°15'0 0.0
2017-Dec-08 19:30N 28°28' W 016°15'1 2.7
2017-Dec-08 19:00N 28°29' W 016°13'815.9
2017-Dec-08 18:31N 28°26' W 016°05'1322.4
2017-Dec-08 17:56N 28°21' W 015°51'1022.4
2017-Dec-08 17:30N 28°17' W 015°41'1122.4
2017-Dec-08 17:00N 28°14' W 015°29'612.5
2017-Dec-08 16:30N 28°09' W 015°24'0 0.6
2017-Dec-08 16:00N 28°10' W 015°24'0 0.0
2017-Dec-08 15:30N 28°10' W 015°24'0 0.0
2017-Dec-08 15:00N 28°10' W 015°24'0 0.0
2017-Dec-08 14:30N 28°10' W 015°24'1 2.6
2017-Dec-08 14:00N 28°10' W 015°23'1122.5
2017-Dec-08 13:30N 28°15' W 015°11'1122.7
2017-Dec-08 13:00N 28°20' W 014°60'1222.8
2017-Dec-08 12:30N 28°25' W 014°48'5522.4
2017-Dec-08 10:02N 28°49' W 013°51'321.4
2017-Dec-08 09:53N 28°49' W 013°47'822.6
2017-Dec-08 09:30N 28°53' W 013°39'816.6
2017-Dec-08 09:00N 28°58' W 013°32'0 0.0
2017-Dec-08 08:26N 28°58' W 013°32'0 0.0
2017-Dec-08 08:00N 28°58' W 013°32'0 0.0
2017-Dec-08 07:29N 28°58' W 013°32'0 0.0
2017-Dec-08 06:59N 28°58' W 013°32'0 0.0
2017-Dec-08 06:28N 28°58' W 013°32'3 5.7
2017-Dec-08 06:00N 28°56' W 013°33'1318.9
2017-Dec-08 05:18N 28°50' W 013°46'4918.7
2017-Dec-08 02:41N 28°32' W 014°38'418.7
2017-Dec-08 02:30N 28°30' W 014°42'918.5
2017-Dec-08 01:59N 28°25' W 014°51'918.4
2017-Dec-08 01:30N 28°21' W 014°60'918.4
2017-Dec-08 01:00N 28°16' W 015°09'918.2
2017-Dec-08 00:30N 28°12' W 015°18'612.0
2017-Dec-08 00:00N 28°10' W 015°24'0 0.0
2017-Dec-07 23:30N 28°10' W 015°24'0 0.0
2017-Dec-07 23:00N 28°10' W 015°24'0 0.0
2017-Dec-07 22:30N 28°10' W 015°24'0 0.0
2017-Dec-07 22:00N 28°10' W 015°24'0 0.0
2017-Dec-07 21:30N 28°10' W 015°24'0 0.0
2017-Dec-07 21:00N 28°10' W 015°24'0 0.0
2017-Dec-07 20:30N 28°10' W 015°24'0 0.0
2017-Dec-07 20:00N 28°10' W 015°24'0 0.0
2017-Dec-07 19:30N 28°10' W 015°24'0 0.0
2017-Dec-07 19:00N 28°10' W 015°24'2 3.1
2017-Dec-07 18:30N 28°09' W 015°22'1121.4
2017-Dec-07 18:01N 28°07' W 015°11'1121.6
2017-Dec-07 17:31N 28°06' W 014°58'1121.6
2017-Dec-07 17:00N 28°04' W 014°46'1121.9
2017-Dec-07 16:30N 28°02' W 014°34'0 0.0
2017-Dec-07 10:14N 28°02' W 014°34'520.7
2017-Dec-07 10:00N 28°03' W 014°39'1020.6
2017-Dec-07 09:30N 28°04' W 014°51'1020.9
2017-Dec-07 09:00N 28°06' W 015°02'1121.0
2017-Dec-07 08:30N 28°08' W 015°14'917.8
2017-Dec-07 08:00N 28°09' W 015°24'0 0.3
2017-Dec-07 07:30N 28°10' W 015°24'0 0.0
2017-Dec-07 07:00N 28°10' W 015°24'0 0.0
2017-Dec-07 06:30N 28°10' W 015°24'0 0.0
2017-Dec-07 06:00N 28°10' W 015°24'0 0.0
2017-Dec-07 05:30N 28°10' W 015°24'0 0.0
2017-Dec-07 05:00N 28°10' W 015°24'0 0.0
2017-Dec-07 04:30N 28°10' W 015°24'0 0.0
2017-Dec-07 04:00N 28°10' W 015°24'0 0.0
2017-Dec-07 03:30N 28°10' W 015°24'0 0.0
2017-Dec-07 03:00N 28°10' W 015°24'0 0.0
2017-Dec-07 02:30N 28°10' W 015°24'0 0.0
2017-Dec-07 02:00N 28°10' W 015°24'0 0.0
2017-Dec-07 01:30N 28°10' W 015°24'0 0.0
2017-Dec-07 01:00N 28°10' W 015°24'0 0.0
2017-Dec-07 00:30N 28°10' W 015°24'0 0.0
2017-Dec-07 00:00N 28°10' W 015°24'0 0.0
2017-Dec-06 23:30N 28°10' W 015°24'0 0.0
2017-Dec-06 23:00N 28°10' W 015°24'0 0.2
2017-Dec-06 22:30N 28°10' W 015°24'611.4
2017-Dec-06 22:00N 28°13' W 015°29'1121.7
2017-Dec-06 21:30N 28°17' W 015°40'1121.4
2017-Dec-06 21:00N 28°21' W 015°52'  
2017-Dec-04 10:30N 28°10' W 015°24'1 1.5
2017-Dec-04 10:00N 28°10' W 015°23'1019.8
2017-Dec-04 09:30N 28°15' W 015°33'1020.9
2017-Dec-04 09:00N 28°18' W 015°44'1020.8
2017-Dec-04 08:30N 28°22' W 015°55'18 7.5
2017-Dec-04 06:04N 28°28' W 016°15'20 2.2
2017-Dec-03 21:05N 28°22' W 015°54'621.5
2017-Dec-03 20:49N 28°19' W 015°48'721.8
2017-Dec-03 20:30N 28°17' W 015°40'1121.5
2017-Dec-03 20:00N 28°13' W 015°29'611.3
2017-Dec-03 19:30N 28°09' W 015°24'0 0.4
2017-Dec-03 19:00N 28°10' W 015°24'0 0.0
2017-Dec-03 18:30N 28°10' W 015°24'1 1.5
2017-Dec-03 18:00N 28°10' W 015°23'1020.1
2017-Dec-03 17:30N 28°15' W 015°33'1121.4
2017-Dec-03 17:00N 28°18' W 015°45'1121.1
2017-Dec-03 16:30N 28°23' W 015°56'1 0.1
2017-Dec-03 09:39N 28°23' W 015°55'522.0
2017-Dec-03 09:25N 28°21' W 015°50'921.8
2017-Dec-03 09:00N 28°17' W 015°41'1121.5
2017-Dec-03 08:30N 28°14' W 015°29'612.2
2017-Dec-03 08:00N 28°09' W 015°24'0 0.4
2017-Dec-03 07:30N 28°10' W 015°24'0 0.0
2017-Dec-03 07:00N 28°10' W 015°24'0 0.0
2017-Dec-03 06:30N 28°10' W 015°24'0 0.0
2017-Dec-03 06:00N 28°10' W 015°24'0 0.0
2017-Dec-03 05:30N 28°10' W 015°24'0 0.0
2017-Dec-03 05:00N 28°10' W 015°24'0 0.0
2017-Dec-03 04:30N 28°10' W 015°24'0 0.0
2017-Dec-03 04:00N 28°10' W 015°24'0 0.0
2017-Dec-03 03:30N 28°10' W 015°24'0 0.0
2017-Dec-03 03:00N 28°10' W 015°24'0 0.0
2017-Dec-03 02:30N 28°10' W 015°24'0 0.0
2017-Dec-03 02:00N 28°10' W 015°24'0 0.0
2017-Dec-03 01:30N 28°10' W 015°24'0 0.0
2017-Dec-03 01:00N 28°10' W 015°24'0 0.0
2017-Dec-03 00:30N 28°10' W 015°24'0 0.0
2017-Dec-03 00:00N 28°10' W 015°24'0 0.0
2017-Dec-02 23:30N 28°10' W 015°24'0 0.0
2017-Dec-02 23:00N 28°10' W 015°24'0 0.0
2017-Dec-02 22:30N 28°10' W 015°24'0 0.0
2017-Dec-02 22:00N 28°10' W 015°24'0 0.0
2017-Dec-02 21:30N 28°10' W 015°24'0 0.0
2017-Dec-02 21:00N 28°10' W 015°24'0 0.0
2017-Dec-02 20:30N 28°10' W 015°24'0 0.0
2017-Dec-02 20:00N 28°10' W 015°24'0 0.0
2017-Dec-02 19:30N 28°10' W 015°24'0 0.0
2017-Dec-02 19:00N 28°10' W 015°24'0 0.0
2017-Dec-02 18:30N 28°10' W 015°24'0 0.0
2017-Dec-02 18:00N 28°10' W 015°24'0 0.0
2017-Dec-02 17:30N 28°10' W 015°24'0 0.0
2017-Dec-02 17:00N 28°10' W 015°24'0 0.0
2017-Dec-02 16:30N 28°10' W 015°24'611.8
2017-Dec-02 16:00N 28°12' W 015°18'1122.0
2017-Dec-02 15:30N 28°16' W 015°07'1121.6
2017-Dec-02 15:00N 28°21' W 014°56'1121.7
2017-Dec-02 14:30N 28°26' W 014°44'1 0.1
2017-Dec-02 02:29N 28°27' W 014°44'919.5
2017-Dec-02 02:01N 28°22' W 014°53'1019.5
2017-Dec-02 01:30N 28°18' W 015°03'1019.2
2017-Dec-02 01:00N 28°15' W 015°13'1019.5
2017-Dec-02 00:30N 28°10' W 015°23'1 2.2
2017-Dec-02 00:00N 28°10' W 015°24'0 0.0
2017-Dec-01 23:30N 28°10' W 015°24'0 0.0
2017-Dec-01 23:00N 28°10' W 015°24'0 0.0
2017-Dec-01 22:30N 28°10' W 015°24'0 0.0
2017-Dec-01 22:00N 28°10' W 015°24'0 0.0
2017-Dec-01 21:30N 28°10' W 015°24'0 0.0
2017-Dec-01 21:00N 28°10' W 015°24'0 0.0
2017-Dec-01 20:30N 28°10' W 015°24'0 0.0
2017-Dec-01 20:00N 28°10' W 015°24'0 0.0
2017-Dec-01 19:30N 28°10' W 015°24'1 2.7
2017-Dec-01 19:00N 28°11' W 015°23'1121.1
2017-Dec-01 18:31N 28°15' W 015°34'1121.3
2017-Dec-01 18:01N 28°19' W 015°46'1121.2
2017-Dec-01 17:31N 28°23' W 015°57'  

Dump ship's entire track history